To NAV CANADA Home Page Login to a new session Search on AWWS site Feedback and Comments Disclaimer Vers la page française équivalente Tips FAQ What's new on the site To the Forecasts and Observations / NOTAM section To "File a Flight Plan" website Publications and other links Update of the User's profile FIC Telephone Numbers My Weather Data Folder Route Weather Data Regional Weather Data Local Weather Data To the Forecasts and Observations / NOTAM section
Request Generated 03/28/2017 at 02:20:14 UTC . Weather information available at that time is displayed.

METAR/TAF

FORT CHIPEWYAN/AB    (show WxCam)

METAR CYPY 280200Z AUTO 08005KT 9SM SCT100 BKN120 00/M05 A3001 RMK
SLP181=
METAR CYPY 280100Z AUTO 06005KT 9SM FEW130 SCT160 01/M04 A3001 RMK
SLP179=
METAR CYPY 280000Z AUTO 09005KT 9SM CLR 02/M03 A3001 RMK SLP180=

*** REMARK        : Forecast period has ended; this was the last TAF issued
*** REMARQUE : La période de prévision est échue; ceci était le dernier TAF qui a été émis
TAF CYPY 271738Z 2718/2722 VRB03KT P6SM OVC008 TEMPO 2718/2720 OVC012
FM272000 06008KT P6SM SCT012 TEMPO 2720/2722 BKN012
RMK FCST BASED ON AUTO OBS. NXT FCST WILL BE ISSUED AT 281245Z=
Your time UTC time
Weather data provided by Environment Canada and NAV CANADA